createdAt,value
2018-08-30T00:01:08.967Z,8.00
2018-08-30T00:03:38.829Z,8.00
2018-08-30T00:06:12.216Z,7.00
2018-08-30T00:08:41.746Z,8.00
2018-08-30T00:11:11.050Z,9.00
2018-08-30T00:13:41.089Z,9.50
2018-08-30T00:16:11.294Z,9.75
2018-08-30T00:18:42.371Z,10.25
2018-08-30T00:21:13.642Z,12.00
2018-08-30T00:23:43.274Z,13.25
2018-08-30T00:26:12.550Z,11.75
2018-08-30T00:28:42.834Z,10.75
2018-08-30T00:31:13.446Z,12.50
2018-08-30T00:33:48.982Z,13.00
2018-08-30T00:36:19.118Z,13.00
2018-08-30T00:38:48.867Z,14.50
2018-08-30T00:41:20.086Z,14.00
2018-08-30T00:43:53.263Z,13.50
2018-08-30T00:46:23.044Z,13.75
2018-08-30T00:49:03.316Z,14.25
2018-08-30T00:51:33.379Z,15.25
2018-08-30T00:54:02.855Z,15.00
2018-08-30T00:56:32.886Z,16.75
2018-08-30T00:59:03.335Z,15.00
2018-08-30T01:01:33.238Z,15.75
2018-08-30T01:04:02.287Z,14.75
2018-08-30T01:06:32.604Z,14.75
2018-08-30T01:09:02.224Z,16.25
2018-08-30T01:11:32.091Z,17.75
2018-08-30T01:14:02.499Z,14.75
2018-08-30T01:16:42.261Z,16.25
2018-08-30T01:21:54.616Z,17.75
2018-08-30T01:24:35.906Z,14.50
2018-08-30T01:27:05.315Z,15.25
2018-08-30T01:29:35.632Z,18.25
2018-08-30T01:32:05.584Z,18.00
2018-08-30T01:34:36.231Z,16.25
2018-08-30T01:37:06.452Z,16.00
2018-08-30T01:39:37.545Z,14.50
2018-08-30T01:42:09.846Z,15.25
2018-08-30T01:44:40.249Z,15.25
2018-08-30T01:47:10.147Z,16.50
2018-08-30T01:49:40.185Z,17.50
2018-08-30T01:52:11.635Z,15.50
2018-08-30T01:54:43.258Z,16.50
2018-08-30T01:57:12.810Z,17.25
2018-08-30T01:59:42.166Z,18.75
2018-08-30T02:02:13.119Z,16.50
2018-08-30T02:04:42.537Z,16.00
2018-08-30T02:07:12.339Z,15.75
2018-08-30T02:09:41.818Z,19.75
2018-08-30T02:12:11.071Z,17.00
2018-08-30T02:14:41.431Z,16.00
2018-08-30T02:17:13.987Z,16.00
2018-08-30T02:19:43.662Z,17.50
2018-08-30T02:22:13.055Z,17.25
2018-08-30T02:24:43.529Z,15.75
2018-08-30T02:27:13.252Z,16.50
2018-08-30T02:29:42.752Z,18.50
2018-08-30T02:32:12.142Z,15.75
2018-08-30T02:34:42.098Z,17.00
2018-08-30T02:37:12.250Z,19.25
2018-08-30T02:39:41.567Z,19.75
2018-08-30T02:42:10.840Z,17.50
2018-08-30T02:44:40.176Z,17.75
2018-08-30T02:47:11.212Z,18.00
2018-08-30T02:49:41.965Z,18.75
2018-08-30T02:52:11.367Z,18.00
2018-08-30T02:54:42.081Z,18.75
2018-08-30T02:57:12.056Z,16.50
2018-08-30T02:59:43.167Z,17.75
2018-08-30T03:02:12.838Z,16.25
2018-08-30T03:04:42.831Z,18.75
2018-08-30T03:07:14.648Z,21.75
2018-08-30T03:09:43.975Z,18.00
2018-08-30T03:12:40.600Z,17.75
2018-08-30T03:15:16.383Z,19.75
2018-08-30T03:17:47.332Z,18.75
2018-08-30T03:20:17.616Z,18.75
2018-08-30T03:22:50.215Z,18.50
2018-08-30T03:25:20.352Z,19.25
2018-08-30T03:27:52.166Z,22.00
2018-08-30T03:30:22.489Z,21.75
2018-08-30T03:32:51.708Z,19.50
2018-08-30T03:35:23.737Z,17.75
2018-08-30T03:37:53.806Z,18.50
2018-08-30T03:40:23.278Z,17.75
2018-08-30T03:42:52.674Z,17.25
2018-08-30T03:45:22.062Z,19.75
2018-08-30T03:47:52.879Z,18.75
2018-08-30T03:50:22.446Z,20.50
2018-08-30T03:52:51.642Z,17.75
2018-08-30T03:55:21.034Z,19.75
2018-08-30T03:57:50.281Z,21.75
2018-08-30T04:00:26.048Z,18.00
2018-08-30T04:02:55.310Z,16.50
2018-08-30T04:05:25.006Z,17.00
2018-08-30T04:07:54.212Z,22.00
2018-08-30T04:10:23.506Z,18.00
2018-08-30T04:12:52.932Z,18.75
2018-08-30T04:15:22.569Z,20.75
2018-08-30T04:17:51.948Z,21.00
2018-08-30T04:20:21.772Z,19.50
2018-08-30T04:22:52.217Z,21.25
2018-08-30T04:25:21.692Z,18.25
2018-08-30T04:27:54.744Z,17.25
2018-08-30T04:30:24.495Z,20.25
2018-08-30T04:32:54.081Z,21.00
2018-08-30T04:35:27.573Z,21.25
2018-08-30T04:37:56.772Z,19.25
2018-08-30T04:40:28.044Z,20.50
2018-08-30T04:42:57.954Z,21.75
2018-08-30T04:45:28.438Z,25.25
2018-08-30T04:47:58.439Z,19.75
2018-08-30T04:50:28.139Z,21.25
2018-08-30T04:53:00.887Z,22.25
2018-08-30T04:55:31.571Z,22.75
2018-08-30T04:58:03.592Z,22.25
2018-08-30T05:00:36.392Z,21.25
2018-08-30T05:03:06.270Z,22.25
2018-08-30T05:05:38.403Z,23.00
2018-08-30T05:11:05.945Z,24.00
2018-08-30T05:13:37.717Z,22.50
2018-08-30T05:16:08.997Z,20.75
2018-08-30T05:18:38.412Z,23.75
2018-08-30T05:21:07.922Z,22.75
2018-08-30T05:23:37.415Z,23.50
2018-08-30T05:26:07.233Z,23.00
2018-08-30T05:28:37.036Z,23.00
2018-08-30T05:31:06.925Z,23.00
2018-08-30T05:33:38.312Z,23.00
2018-08-30T05:36:07.723Z,23.00
2018-08-30T05:38:38.823Z,23.00
2018-08-30T05:41:08.654Z,23.00
2018-08-30T05:43:38.973Z,21.50
2018-08-30T05:46:11.991Z,22.25
2018-08-30T05:48:43.490Z,22.75
2018-08-30T05:51:13.716Z,22.50
2018-08-30T05:53:43.510Z,22.75
2018-08-30T05:56:14.756Z,21.75
2018-08-30T05:58:45.290Z,23.00
2018-08-30T06:01:15.483Z,22.00
2018-08-30T06:03:44.887Z,20.75
2018-08-30T06:06:16.322Z,21.75
2018-08-30T06:08:46.204Z,22.50
2018-08-30T06:11:15.937Z,22.00
2018-08-30T06:13:47.239Z,22.00
2018-08-30T06:16:21.454Z,17.50
2018-08-30T06:18:50.675Z,22.25
2018-08-30T06:21:21.101Z,18.75
2018-08-30T06:23:51.987Z,18.00
2018-08-30T06:26:26.616Z,19.75
2018-08-30T06:28:58.988Z,19.75
2018-08-30T06:31:31.431Z,17.25
2018-08-30T06:34:10.336Z,18.00
2018-08-30T06:36:44.270Z,20.50
2018-08-30T06:39:16.739Z,17.50
2018-08-30T06:41:46.114Z,17.75
2018-08-30T06:44:16.077Z,17.75
2018-08-30T06:46:48.070Z,16.75
2018-08-30T06:49:18.183Z,16.00
2018-08-30T06:51:47.571Z,18.75
2018-08-30T06:54:20.466Z,16.50
2018-08-30T06:56:51.250Z,18.75
2018-08-30T06:59:22.604Z,19.25
2018-08-30T07:01:53.835Z,13.00
2018-08-30T07:04:24.899Z,16.75
2018-08-30T07:06:55.535Z,16.00
2018-08-30T07:09:49.207Z,13.25
2018-08-30T07:12:20.251Z,13.00
2018-08-30T07:14:50.025Z,14.75
2018-08-30T07:17:21.031Z,13.25
2018-08-30T07:19:50.763Z,12.00
2018-08-30T07:22:21.528Z,12.75
2018-08-30T07:25:03.503Z,13.00
2018-08-30T07:27:53.113Z,11.00
2018-08-30T07:30:24.231Z,11.75
2018-08-30T07:32:55.593Z,14.50
2018-08-30T07:35:27.360Z,13.00
2018-08-30T07:38:02.188Z,11.00
2018-08-30T07:40:31.833Z,12.25
2018-08-30T07:43:04.444Z,12.50
2018-08-30T07:45:35.296Z,11.50
2018-08-30T07:48:05.603Z,11.00
2018-08-30T07:50:37.447Z,10.00
2018-08-30T07:53:08.520Z,10.75
2018-08-30T07:55:38.614Z,9.25
2018-08-30T07:58:10.003Z,8.75
2018-08-30T08:00:40.522Z,7.75
2018-08-30T08:05:44.990Z,6.25
2018-08-30T08:08:16.805Z,7.00
2018-08-30T08:10:48.510Z,8.50
2018-08-30T08:13:21.300Z,7.50
2018-08-30T08:15:52.795Z,6.00
2018-08-30T08:18:23.974Z,7.25
2018-08-30T08:21:06.635Z,6.75
2018-08-30T08:23:45.093Z,7.00
2018-08-30T08:26:15.940Z,5.00
2018-08-30T08:28:52.817Z,6.25
2018-08-30T08:31:28.638Z,6.00
2018-08-30T08:34:01.799Z,6.00
2018-08-30T08:36:33.655Z,5.50
2018-08-30T08:39:03.747Z,5.50
2018-08-30T08:41:33.406Z,6.00
2018-08-30T08:44:19.292Z,4.00
2018-08-30T08:46:50.583Z,5.75
2018-08-30T08:49:20.124Z,5.00
2018-08-30T08:51:51.441Z,5.50
2018-08-30T08:54:22.244Z,6.25
2018-08-30T08:57:03.044Z,5.50
2018-08-30T08:59:34.221Z,6.00
2018-08-30T09:02:03.893Z,6.00
2018-08-30T09:04:33.220Z,5.00
2018-08-30T09:07:05.714Z,4.25
2018-08-30T09:09:35.152Z,4.25
2018-08-30T09:12:04.610Z,5.00
2018-08-30T09:14:34.520Z,4.25
2018-08-30T09:17:06.242Z,5.00
2018-08-30T09:19:40.623Z,5.25
2018-08-30T09:22:11.421Z,4.50
2018-08-30T09:24:41.393Z,3.75
2018-08-30T09:27:12.262Z,4.00
2018-08-30T09:29:44.264Z,4.00
2018-08-30T09:32:17.759Z,4.00
2018-08-30T09:34:50.539Z,4.00
2018-08-30T09:37:21.405Z,3.00
2018-08-30T09:39:51.918Z,4.25
2018-08-30T09:42:21.860Z,4.00
2018-08-30T09:44:53.637Z,4.00
2018-08-30T09:47:35.318Z,3.50
2018-08-30T09:50:11.449Z,4.00
2018-08-30T09:52:46.920Z,3.25
2018-08-30T09:55:35.179Z,3.00
2018-08-30T09:58:06.545Z,3.00
2018-08-30T10:00:41.603Z,2.75
2018-08-30T10:03:12.321Z,3.75
2018-08-30T10:05:42.870Z,6.50
2018-08-30T10:08:14.313Z,2.75
2018-08-30T10:10:46.997Z,2.50
2018-08-30T10:13:18.747Z,3.25
2018-08-30T10:15:53.395Z,1.75
2018-08-30T10:18:28.985Z,2.25
2018-08-30T10:20:58.844Z,1.75
2018-08-30T10:23:31.515Z,2.25
2018-08-30T10:26:01.737Z,1.25
2018-08-30T10:28:35.250Z,2.00
2018-08-30T10:31:06.981Z,2.25
2018-08-30T10:33:39.711Z,3.00
2018-08-30T10:36:10.945Z,1.50
2018-08-30T10:38:44.515Z,1.00
2018-08-30T10:41:17.373Z,2.25
2018-08-30T10:43:52.913Z,2.00
2018-08-30T10:46:28.654Z,1.50
2018-08-30T10:49:03.650Z,1.00
2018-08-30T10:51:36.420Z,2.00
2018-08-30T10:54:05.900Z,1.00
2018-08-30T10:56:39.478Z,2.00
2018-08-30T10:59:18.832Z,2.00
2018-08-30T11:02:05.852Z,2.00
2018-08-30T11:05:13.178Z,1.00
2018-08-30T11:07:44.583Z,1.75
2018-08-30T11:10:14.732Z,0.75
2018-08-30T11:12:46.855Z,1.00
2018-08-30T11:15:22.850Z,1.00
2018-08-30T11:17:56.783Z,1.50
2018-08-30T11:20:27.492Z,0.25
2018-08-30T11:22:59.992Z,0.25
2018-08-30T11:25:30.221Z,0.75
2018-08-30T11:28:00.714Z,0.00
2018-08-30T11:30:31.719Z,0.00
2018-08-30T11:33:01.439Z,1.00
2018-08-30T11:35:32.177Z,0.00
2018-08-30T11:38:12.053Z,0.00
2018-08-30T11:40:51.812Z,1.00
2018-08-30T11:43:23.669Z,1.00
2018-08-30T11:45:55.245Z,0.00
2018-08-30T11:48:26.679Z,1.25
2018-08-30T11:51:01.479Z,1.00
2018-08-30T11:53:31.549Z,1.00
2018-08-30T11:56:02.086Z,1.25
2018-08-30T11:58:33.329Z,1.00
2018-08-30T12:01:04.068Z,1.00
2018-08-30T12:03:34.167Z,1.00
2018-08-30T12:06:08.559Z,0.50
2018-08-30T12:08:54.003Z,0.50
2018-08-30T12:11:24.384Z,0.25
2018-08-30T12:13:54.833Z,0.00
2018-08-30T12:16:27.366Z,1.00
2018-08-30T12:18:57.283Z,0.75
2018-08-30T12:21:26.572Z,1.00
2018-08-30T12:23:57.907Z,1.00
2018-08-30T12:26:33.644Z,1.50
2018-08-30T12:29:34.536Z,1.00
2018-08-30T12:32:04.714Z,1.25
2018-08-30T12:34:34.599Z,0.00
2018-08-30T12:37:03.914Z,0.00
2018-08-30T12:39:34.099Z,0.00
2018-08-30T12:42:05.234Z,0.50
2018-08-30T12:44:40.053Z,1.00
2018-08-30T12:47:11.658Z,0.50
2018-08-30T12:49:43.280Z,0.00
2018-08-30T12:52:12.720Z,0.00
2018-08-30T12:54:43.128Z,1.00
2018-08-30T12:57:12.723Z,0.00
2018-08-30T12:59:48.792Z,0.00
2018-08-30T13:02:27.019Z,0.75
2018-08-30T13:04:59.028Z,0.25
2018-08-30T13:07:30.769Z,1.25
2018-08-30T13:10:13.595Z,0.25
2018-08-30T13:12:50.479Z,1.00
2018-08-30T13:15:42.567Z,0.25
2018-08-30T13:18:16.079Z,1.25
2018-08-30T13:20:48.405Z,1.25
2018-08-30T13:23:19.338Z,1.25
2018-08-30T13:25:49.984Z,1.25
2018-08-30T13:28:21.674Z,0.50
2018-08-30T13:30:53.898Z,0.75
2018-08-30T13:33:24.512Z,1.25
2018-08-30T13:35:58.104Z,0.75
2018-08-30T13:38:27.731Z,0.75
2018-08-30T13:40:59.443Z,0.75
2018-08-30T13:43:46.597Z,1.75
2018-08-30T13:46:19.982Z,1.75
2018-08-30T13:51:33.987Z,0.00
2018-08-30T13:54:06.108Z,1.25
2018-08-30T13:59:07.693Z,1.25
2018-08-30T14:01:47.972Z,1.00
2018-08-30T14:04:22.993Z,1.00
2018-08-30T14:06:57.793Z,0.75
2018-08-30T14:09:31.806Z,0.50
2018-08-30T14:12:04.891Z,1.00
2018-08-30T14:14:34.628Z,2.00
2018-08-30T14:17:04.749Z,1.00
2018-08-30T14:19:34.104Z,3.00
2018-08-30T14:22:03.588Z,1.00
2018-08-30T14:24:34.346Z,2.00
2018-08-30T14:27:15.046Z,1.25
2018-08-30T14:29:45.294Z,3.00
2018-08-30T14:32:29.230Z,1.75
2018-08-30T14:35:03.465Z,1.00
2018-08-30T14:37:46.845Z,0.50
2018-08-30T14:40:21.135Z,1.00
2018-08-30T14:42:51.573Z,1.00
2018-08-30T14:45:21.164Z,1.00
2018-08-30T14:47:53.217Z,1.00
2018-08-30T14:50:22.777Z,1.50
2018-08-30T14:52:53.085Z,1.50
2018-08-30T14:55:24.175Z,2.00
2018-08-30T14:58:13.099Z,2.00
2018-08-30T15:00:45.342Z,1.50
2018-08-30T15:03:21.786Z,1.00
2018-08-30T15:05:56.364Z,1.00
2018-08-30T15:08:27.900Z,1.00
2018-08-30T15:10:59.867Z,1.00
2018-08-30T15:13:30.282Z,1.50
2018-08-30T15:16:03.688Z,1.00
2018-08-30T15:18:36.280Z,1.75
2018-08-30T15:21:10.459Z,1.75
2018-08-30T15:23:40.040Z,1.25
2018-08-30T15:26:14.364Z,1.25
2018-08-30T15:28:44.340Z,1.25
2018-08-30T15:31:13.948Z,1.75
2018-08-30T15:33:45.830Z,1.50
2018-08-30T15:36:51.609Z,2.00
2018-08-30T15:39:21.327Z,3.00
2018-08-30T15:41:53.120Z,2.00
2018-08-30T15:44:22.504Z,2.00
2018-08-30T15:46:59.399Z,1.00
2018-08-30T15:49:29.317Z,2.00
2018-08-30T15:51:59.478Z,1.75
2018-08-30T15:54:33.386Z,1.50
2018-08-30T15:57:05.769Z,1.75
2018-08-30T15:59:36.186Z,2.00
2018-08-30T16:02:08.740Z,2.00
2018-08-30T16:04:43.042Z,2.00
2018-08-30T16:07:15.356Z,2.50
2018-08-30T16:09:53.149Z,2.00
2018-08-30T16:12:25.582Z,2.25
2018-08-30T16:14:56.384Z,2.25
2018-08-30T16:17:47.061Z,2.00
2018-08-30T16:20:17.782Z,3.00
2018-08-30T16:23:10.126Z,2.25
2018-08-30T16:25:40.231Z,2.75
2018-08-30T16:28:14.063Z,3.50
2018-08-30T16:30:44.963Z,2.00
2018-08-30T16:33:18.157Z,2.50
2018-08-30T16:35:49.043Z,2.00
2018-08-30T16:38:26.521Z,3.00
2018-08-30T16:41:05.456Z,2.00
2018-08-30T16:43:35.629Z,2.00
2018-08-30T16:46:07.201Z,2.00
2018-08-30T16:48:49.847Z,2.00
2018-08-30T16:51:32.716Z,2.00
2018-08-30T16:54:03.254Z,1.25
2018-08-30T16:56:36.235Z,1.75
2018-08-30T16:59:14.389Z,2.00
2018-08-30T17:01:48.179Z,2.00
2018-08-30T17:04:20.324Z,2.00
2018-08-30T17:06:53.898Z,2.00
2018-08-30T17:09:31.036Z,2.50
2018-08-30T17:12:06.932Z,2.75
2018-08-30T17:14:41.387Z,2.00
2018-08-30T17:17:12.682Z,2.00
2018-08-30T17:19:45.009Z,2.00
2018-08-30T17:22:16.471Z,2.00
2018-08-30T17:24:50.239Z,1.25
2018-08-30T17:27:19.707Z,2.00
2018-08-30T17:29:51.115Z,2.00
2018-08-30T17:32:25.532Z,1.75
2018-08-30T17:34:56.719Z,2.00
2018-08-30T17:37:29.229Z,2.00
2018-08-30T17:40:03.081Z,2.00
2018-08-30T17:42:34.620Z,2.75
2018-08-30T17:48:15.201Z,3.00
2018-08-30T17:50:51.512Z,2.25
2018-08-30T17:53:24.223Z,3.00
2018-08-30T17:55:57.003Z,2.00
2018-08-30T17:58:27.376Z,2.00
2018-08-30T18:00:59.374Z,2.25
2018-08-30T18:03:31.390Z,2.00
2018-08-30T18:06:12.250Z,2.00
2018-08-30T18:11:44.635Z,2.00
2018-08-30T18:14:19.580Z,2.50
2018-08-30T18:16:50.311Z,3.00
2018-08-30T18:19:21.875Z,1.50
2018-08-30T18:21:58.775Z,1.00
2018-08-30T18:24:43.385Z,2.00
2018-08-30T18:27:18.519Z,2.75
2018-08-30T18:29:51.908Z,2.25
2018-08-30T18:32:22.086Z,2.00
2018-08-30T18:34:53.683Z,2.50
2018-08-30T18:37:23.629Z,3.00
2018-08-30T18:39:53.597Z,2.00
2018-08-30T18:42:29.711Z,2.50
2018-08-30T18:45:04.564Z,2.00
2018-08-30T18:48:06.803Z,2.00
2018-08-30T18:50:38.637Z,2.00
2018-08-30T18:53:13.439Z,2.00
2018-08-30T18:55:43.319Z,2.00
2018-08-30T18:58:14.238Z,2.50
2018-08-30T19:03:46.260Z,2.00
2018-08-30T19:06:17.168Z,1.25
2018-08-30T19:08:46.993Z,1.50
2018-08-30T19:11:17.730Z,1.00
2018-08-30T19:13:48.760Z,1.50
2018-08-30T19:16:27.379Z,1.00
2018-08-30T19:19:02.789Z,1.00
2018-08-30T19:21:34.567Z,1.75
2018-08-30T19:24:05.264Z,2.00
2018-08-30T19:26:35.269Z,1.00
2018-08-30T19:29:07.382Z,2.00
2018-08-30T19:31:57.181Z,2.00
2018-08-30T19:34:29.774Z,1.75
2018-08-30T19:37:03.135Z,2.00
2018-08-30T19:39:35.513Z,1.00
2018-08-30T19:42:10.093Z,1.00
2018-08-30T19:44:40.701Z,2.00
2018-08-30T19:47:15.419Z,2.00
2018-08-30T19:49:46.481Z,2.00
2018-08-30T19:52:21.643Z,2.00
2018-08-30T19:54:53.531Z,1.50
2018-08-30T19:57:30.604Z,2.00
2018-08-30T20:00:05.653Z,3.00
2018-08-30T20:02:38.342Z,2.00
2018-08-30T20:05:22.420Z,2.00
2018-08-30T20:07:55.612Z,2.00
2018-08-30T20:10:26.635Z,1.00
2018-08-30T20:16:02.530Z,2.00
2018-08-30T20:21:11.639Z,1.50
2018-08-30T20:23:42.285Z,2.00
2018-08-30T20:26:18.300Z,2.00
2018-08-30T20:28:47.833Z,2.00
2018-08-30T20:31:21.255Z,1.25
2018-08-30T20:33:56.780Z,2.00
2018-08-30T20:36:28.179Z,2.00
2018-08-30T20:39:00.327Z,3.00
2018-08-30T20:41:30.353Z,2.00
2018-08-30T20:44:02.044Z,4.00
2018-08-30T20:46:36.424Z,2.25
2018-08-30T20:49:07.636Z,3.00
2018-08-30T20:51:39.057Z,2.00
2018-08-30T20:54:16.302Z,2.00
2018-08-30T20:56:50.516Z,2.00
2018-08-30T20:59:35.111Z,2.00
2018-08-30T21:02:05.763Z,2.00
2018-08-30T21:04:36.569Z,2.25
2018-08-30T21:07:13.518Z,1.75
2018-08-30T21:09:46.162Z,2.00
2018-08-30T21:12:17.419Z,2.00
2018-08-30T21:17:27.831Z,2.50
2018-08-30T21:19:59.025Z,3.00
2018-08-30T21:22:29.139Z,2.00
2018-08-30T21:25:05.332Z,2.25
2018-08-30T21:27:39.595Z,2.25
2018-08-30T21:30:14.963Z,2.00
2018-08-30T21:32:45.058Z,2.75
2018-08-30T21:35:15.701Z,1.50
2018-08-30T21:37:46.899Z,2.00
2018-08-30T21:40:16.405Z,2.75
2018-08-30T21:42:46.902Z,2.00
2018-08-30T21:45:17.744Z,2.25
2018-08-30T21:47:49.338Z,3.25
2018-08-30T21:50:18.919Z,2.00
2018-08-30T21:52:48.434Z,2.00
2018-08-30T21:55:18.736Z,3.00
2018-08-30T21:57:49.364Z,2.50
2018-08-30T22:00:19.554Z,1.25
2018-08-30T22:02:52.305Z,2.00
2018-08-30T22:05:24.913Z,3.00
2018-08-30T22:07:56.447Z,2.00
2018-08-30T22:10:30.330Z,2.00
2018-08-30T22:13:04.216Z,2.75
2018-08-30T22:15:34.066Z,2.75
2018-08-30T22:18:04.310Z,3.00
2018-08-30T22:20:34.732Z,2.50
2018-08-30T22:23:04.746Z,2.00
2018-08-30T22:25:34.434Z,1.25
2018-08-30T22:28:04.004Z,3.00
2018-08-30T22:30:38.035Z,2.00
2018-08-30T22:33:13.754Z,1.75
2018-08-30T22:35:44.313Z,2.00
2018-08-30T22:38:13.959Z,3.00
2018-08-30T22:40:43.496Z,3.00
2018-08-30T22:43:13.132Z,2.75
2018-08-30T22:45:46.662Z,2.25
2018-08-30T22:48:17.342Z,2.50
2018-08-30T22:50:48.207Z,3.00
2018-08-30T22:53:20.557Z,2.00
2018-08-30T22:55:56.384Z,3.50
2018-08-30T22:58:30.564Z,1.25
2018-08-30T23:01:00.663Z,2.00
2018-08-30T23:03:30.163Z,2.25
2018-08-30T23:05:59.942Z,2.00
2018-08-30T23:08:29.287Z,2.50
2018-08-30T23:10:59.322Z,2.00
2018-08-30T23:13:29.667Z,2.25
2018-08-30T23:15:59.415Z,2.50
2018-08-30T23:18:30.313Z,2.00
2018-08-30T23:21:00.936Z,3.00
2018-08-30T23:23:30.342Z,3.00
2018-08-30T23:25:59.783Z,3.00
2018-08-30T23:28:29.498Z,2.75
2018-08-30T23:30:59.660Z,4.00
2018-08-30T23:33:29.124Z,3.00
2018-08-30T23:36:00.566Z,3.00
2018-08-30T23:38:30.160Z,3.00
2018-08-30T23:41:00.760Z,3.00
2018-08-30T23:43:32.564Z,2.75
2018-08-30T23:48:38.909Z,2.75
2018-08-30T23:51:08.212Z,3.00
2018-08-30T23:53:39.652Z,2.00
2018-08-30T23:56:29.229Z,3.00
2018-08-30T23:59:09.536Z,3.00
